createdAt,value
2022-09-23T00:01:15.386Z,10.00
2022-09-23T00:03:47.435Z,10.50
2022-09-23T00:06:18.841Z,10.80
2022-09-23T00:08:45.942Z,10.40
2022-09-23T00:11:20.228Z,9.60
2022-09-23T00:13:50.549Z,10.20
2022-09-23T00:16:25.174Z,11.10
2022-09-23T00:18:52.533Z,9.70
2022-09-23T00:21:21.703Z,9.50
2022-09-23T00:23:49.114Z,10.10
2022-09-23T00:26:20.534Z,9.30
2022-09-23T00:28:48.821Z,10.40
2022-09-23T00:31:20.726Z,9.50
2022-09-23T00:33:47.944Z,10.20
2022-09-23T00:36:16.330Z,9.60
2022-09-23T00:38:45.196Z,8.80
2022-09-23T00:41:15.198Z,8.30
2022-09-23T00:43:52.928Z,8.20
2022-09-23T00:46:36.169Z,10.20
2022-09-23T00:49:17.570Z,10.20
2022-09-23T00:51:53.219Z,8.60
2022-09-23T00:54:24.164Z,11.80
2022-09-23T00:56:51.252Z,10.10
2022-09-23T00:59:18.799Z,7.90
2022-09-23T01:01:47.047Z,8.20
2022-09-23T01:04:14.769Z,8.90
2022-09-23T01:06:41.491Z,8.80
2022-09-23T01:09:08.227Z,9.10
2022-09-23T01:11:55.571Z,9.60
2022-09-23T01:14:52.922Z,10.60
2022-09-23T01:17:56.716Z,9.10
2022-09-23T01:20:56.053Z,8.70
2022-09-23T01:24:09.559Z,8.70
2022-09-23T01:26:56.764Z,8.70
2022-09-23T01:30:02.705Z,8.40
2022-09-23T01:32:59.904Z,8.20
2022-09-23T01:35:38.997Z,8.90
2022-09-23T01:38:52.512Z,7.10
2022-09-23T01:42:17.369Z,8.30
2022-09-23T01:44:53.048Z,9.00
2022-09-23T01:47:30.970Z,11.30
2022-09-23T01:50:25.026Z,12.20
2022-09-23T01:52:56.372Z,12.70
2022-09-23T01:55:31.053Z,9.40
2022-09-23T01:58:09.782Z,8.20
2022-09-23T02:00:44.135Z,9.10
2022-09-23T02:03:18.518Z,9.00
2022-09-23T02:05:57.033Z,7.80
2022-09-23T02:08:41.647Z,8.90
2022-09-23T02:13:58.540Z,11.90
2022-09-23T02:16:31.978Z,15.10
2022-09-23T02:19:15.452Z,14.20
2022-09-23T02:21:52.861Z,13.30
2022-09-23T02:24:30.578Z,15.50
2022-09-23T02:27:20.687Z,14.30
2022-09-23T02:30:35.169Z,12.50
2022-09-23T02:33:07.894Z,13.90
2022-09-23T02:36:05.880Z,10.00
2022-09-23T02:38:43.872Z,12.40
2022-09-23T02:41:18.373Z,11.80
2022-09-23T02:44:01.978Z,9.70
2022-09-23T02:46:30.124Z,10.80
2022-09-23T02:49:11.294Z,11.50
2022-09-23T02:51:40.399Z,10.90
2022-09-23T02:54:14.904Z,10.90
2022-09-23T02:56:41.888Z,9.70
2022-09-23T02:59:09.984Z,9.10
2022-09-23T03:02:17.666Z,9.50
2022-09-23T03:04:59.912Z,9.80
2022-09-23T03:07:59.915Z,10.80
2022-09-23T03:10:40.136Z,10.10
2022-09-23T03:13:35.511Z,10.10
2022-09-23T03:16:31.837Z,11.40
2022-09-23T03:19:17.706Z,11.70
2022-09-23T03:22:00.920Z,12.60
2022-09-23T03:24:32.128Z,10.30
2022-09-23T03:27:05.105Z,9.60
2022-09-23T03:29:37.234Z,9.80
2022-09-23T03:32:08.283Z,11.50
2022-09-23T03:34:39.120Z,19.40
2022-09-23T03:37:26.271Z,12.00
2022-09-23T03:40:00.860Z,12.70
2022-09-23T03:42:32.861Z,12.10
2022-09-23T03:45:01.395Z,12.80
2022-09-23T03:47:28.995Z,13.20
2022-09-23T03:49:56.820Z,16.10
2022-09-23T03:52:26.121Z,16.40
2022-09-23T03:54:53.919Z,15.20
2022-09-23T03:57:22.161Z,13.50
2022-09-23T03:59:52.842Z,14.40
2022-09-23T04:02:20.603Z,16.10
2022-09-23T04:04:47.743Z,18.80
2022-09-23T04:07:15.639Z,15.70
2022-09-23T04:09:42.279Z,17.50
2022-09-23T04:12:15.168Z,16.30
2022-09-23T04:14:42.895Z,14.70
2022-09-23T04:17:10.086Z,15.70
2022-09-23T04:19:37.056Z,16.00
2022-09-23T04:22:04.839Z,15.60
2022-09-23T04:24:31.570Z,14.70
2022-09-23T04:26:58.315Z,14.70
2022-09-23T04:29:26.086Z,16.90
2022-09-23T04:31:53.727Z,15.80
2022-09-23T04:34:21.648Z,15.90
2022-09-23T04:36:49.606Z,13.80
2022-09-23T04:39:18.071Z,12.50
2022-09-23T04:41:45.968Z,12.80
2022-09-23T04:44:14.796Z,13.60
2022-09-23T04:46:42.736Z,13.60
2022-09-23T04:49:09.923Z,14.00
2022-09-23T04:51:36.645Z,12.70
2022-09-23T04:54:03.358Z,14.00
2022-09-23T04:56:33.990Z,13.30
2022-09-23T04:59:04.678Z,11.40
2022-09-23T05:01:34.642Z,11.40
2022-09-23T05:04:10.254Z,11.60
2022-09-23T05:06:37.240Z,13.60
2022-09-23T05:09:09.102Z,14.00
2022-09-23T05:11:36.270Z,15.10
2022-09-23T05:14:03.585Z,19.20
2022-09-23T05:16:30.288Z,35.60
2022-09-23T05:18:58.064Z,34.10
2022-09-23T05:21:31.868Z,21.50
2022-09-23T05:24:00.889Z,19.60
2022-09-23T05:26:31.683Z,17.40
2022-09-23T05:29:00.022Z,19.30
2022-09-23T05:31:30.072Z,13.70
2022-09-23T05:34:03.069Z,19.00
2022-09-23T05:36:37.611Z,17.50
2022-09-23T05:39:06.737Z,26.40
2022-09-23T05:41:34.030Z,28.60
2022-09-23T05:44:01.942Z,32.80
2022-09-23T05:46:31.907Z,36.60
2022-09-23T05:49:02.895Z,37.80
2022-09-23T05:51:31.707Z,26.10
2022-09-23T05:54:00.220Z,20.90
2022-09-23T05:56:28.330Z,19.10
2022-09-23T05:58:58.547Z,15.70
2022-09-23T06:01:33.972Z,16.50
2022-09-23T06:04:04.536Z,20.30
2022-09-23T06:06:37.322Z,15.80
2022-09-23T06:09:07.281Z,22.70
2022-09-23T06:11:36.171Z,14.90
2022-09-23T06:14:04.254Z,17.30
2022-09-23T06:16:35.076Z,16.30
2022-09-23T06:19:06.343Z,14.60
2022-09-23T06:21:37.664Z,15.50
2022-09-23T06:24:06.390Z,15.10
2022-09-23T06:26:37.606Z,12.50
2022-09-23T06:29:11.852Z,14.80
2022-09-23T06:31:40.848Z,15.80
2022-09-23T06:34:13.391Z,14.30
2022-09-23T06:36:45.945Z,14.50
2022-09-23T06:39:16.327Z,13.90
2022-09-23T06:41:44.302Z,15.80
2022-09-23T06:44:11.062Z,17.40
2022-09-23T06:46:37.978Z,17.50
2022-09-23T06:49:04.621Z,14.70
2022-09-23T06:51:31.329Z,16.20
2022-09-23T06:53:57.910Z,14.70
2022-09-23T06:56:24.909Z,15.70
2022-09-23T06:58:52.968Z,15.20
2022-09-23T07:01:20.080Z,19.80
2022-09-23T07:03:48.527Z,15.20
2022-09-23T07:06:16.377Z,17.30
2022-09-23T07:08:46.955Z,16.30
2022-09-23T07:11:15.201Z,16.40
2022-09-23T07:13:42.933Z,20.00
2022-09-23T07:16:11.173Z,19.00
2022-09-23T07:18:38.501Z,17.80
2022-09-23T07:21:15.891Z,18.40
2022-09-23T07:23:48.617Z,16.80
2022-09-23T07:26:18.064Z,19.30
2022-09-23T07:28:45.512Z,18.70
2022-09-23T07:31:30.691Z,18.00
2022-09-23T07:34:02.370Z,15.40
2022-09-23T07:36:33.670Z,15.80
2022-09-23T07:39:02.343Z,14.10
2022-09-23T07:41:31.149Z,12.90
2022-09-23T07:44:00.558Z,15.20
2022-09-23T07:46:31.069Z,13.90
2022-09-23T07:48:58.731Z,11.10
2022-09-23T07:51:36.051Z,11.40
2022-09-23T07:54:10.405Z,12.50
2022-09-23T07:56:38.165Z,12.90
2022-09-23T07:59:09.164Z,12.20
2022-09-23T08:01:41.254Z,12.40
2022-09-23T08:04:31.291Z,9.40
2022-09-23T08:07:01.684Z,12.30
2022-09-23T08:09:35.975Z,10.00
2022-09-23T08:12:02.595Z,8.80
2022-09-23T08:14:29.200Z,8.80
2022-09-23T08:16:56.106Z,8.50
2022-09-23T08:19:22.716Z,6.80
2022-09-23T08:21:50.373Z,9.00
2022-09-23T08:24:20.881Z,5.50
2022-09-23T08:26:48.847Z,6.90
2022-09-23T08:29:17.797Z,6.50
2022-09-23T08:31:44.930Z,6.10
2022-09-23T08:34:12.255Z,5.70
2022-09-23T08:36:39.142Z,6.40
2022-09-23T08:39:09.385Z,4.50
2022-09-23T08:41:48.992Z,4.50
2022-09-23T08:44:44.137Z,4.90
2022-09-23T08:47:39.902Z,3.40
2022-09-23T08:50:24.946Z,4.90
2022-09-23T08:52:58.821Z,4.40
2022-09-23T08:55:51.777Z,7.60
2022-09-23T08:58:35.164Z,5.40
2022-09-23T09:01:27.163Z,4.10
2022-09-23T09:04:01.757Z,4.60
2022-09-23T09:06:53.947Z,4.90
2022-09-23T09:09:31.027Z,3.90
2022-09-23T09:12:34.225Z,4.00
2022-09-23T09:15:24.846Z,4.40
2022-09-23T09:18:11.463Z,3.50
2022-09-23T09:21:09.299Z,3.30
2022-09-23T09:23:50.219Z,3.20
2022-09-23T09:26:23.021Z,2.80
2022-09-23T09:29:02.504Z,2.80
2022-09-23T09:31:49.695Z,5.20
2022-09-23T09:34:41.462Z,3.70
2022-09-23T09:37:25.047Z,3.50
2022-09-23T09:39:51.916Z,2.50
2022-09-23T09:42:41.287Z,2.40
2022-09-23T09:45:33.623Z,1.80
2022-09-23T09:48:20.232Z,2.50
2022-09-23T09:50:52.301Z,2.30
2022-09-23T09:53:29.418Z,2.00
2022-09-23T09:56:12.707Z,2.50
2022-09-23T09:58:44.996Z,2.20
2022-09-23T10:01:41.201Z,2.30
2022-09-23T10:04:35.550Z,3.00
2022-09-23T10:07:15.743Z,3.10
2022-09-23T10:09:50.962Z,2.10
2022-09-23T10:12:26.222Z,2.00
2022-09-23T10:14:57.317Z,1.90
2022-09-23T10:17:34.714Z,2.30
2022-09-23T10:20:09.740Z,2.70
2022-09-23T10:22:42.453Z,2.60
2022-09-23T10:25:19.218Z,2.30
2022-09-23T10:27:45.974Z,4.50
2022-09-23T10:30:15.311Z,2.50
2022-09-23T10:32:45.430Z,2.60
2022-09-23T10:35:21.026Z,2.70
2022-09-23T10:37:56.747Z,2.40
2022-09-23T10:40:57.919Z,2.80
2022-09-23T10:44:07.044Z,3.10
2022-09-23T10:47:10.758Z,3.10
2022-09-23T10:50:03.750Z,2.40
2022-09-23T10:52:55.429Z,2.70
2022-09-23T10:56:14.368Z,3.00
2022-09-23T10:59:24.274Z,3.30
2022-09-23T11:01:54.843Z,4.20
2022-09-23T11:05:08.029Z,3.00
2022-09-23T11:08:04.056Z,2.70
2022-09-23T11:11:02.405Z,2.60
2022-09-23T11:13:58.862Z,2.70
2022-09-23T11:16:54.571Z,3.50
2022-09-23T11:20:00.354Z,3.20
2022-09-23T11:23:05.738Z,4.50
2022-09-23T11:25:51.137Z,4.50
2022-09-23T11:28:26.180Z,3.20
2022-09-23T11:31:22.724Z,2.70
2022-09-23T11:34:01.705Z,2.80
2022-09-23T11:36:38.814Z,5.50
2022-09-23T11:39:17.396Z,6.20
2022-09-23T11:41:46.055Z,3.00
2022-09-23T11:44:44.965Z,2.80
2022-09-23T11:47:23.652Z,5.50
2022-09-23T11:50:05.439Z,5.30
2022-09-23T11:52:47.089Z,5.90
2022-09-23T11:55:24.424Z,7.40
2022-09-23T11:57:56.489Z,16.00
2022-09-23T12:00:34.293Z,5.10
2022-09-23T12:03:18.857Z,3.00
2022-09-23T12:05:53.140Z,2.20
2022-09-23T12:08:32.364Z,1.80
2022-09-23T12:11:28.168Z,2.60
2022-09-23T12:14:15.492Z,2.90
2022-09-23T12:17:37.440Z,2.80
2022-09-23T12:20:44.815Z,2.40
2022-09-23T12:23:42.617Z,3.30
2022-09-23T12:26:17.827Z,2.20
2022-09-23T12:28:49.363Z,1.90
2022-09-23T12:31:20.335Z,3.00
2022-09-23T12:33:53.646Z,3.20
2022-09-23T12:36:34.778Z,2.50
2022-09-23T12:39:17.319Z,2.30
2022-09-23T12:41:50.722Z,2.60
2022-09-23T12:44:37.908Z,3.20
2022-09-23T12:47:25.651Z,2.90
2022-09-23T12:50:01.282Z,3.00
2022-09-23T12:52:33.423Z,3.90
2022-09-23T12:55:35.601Z,3.40
2022-09-23T12:58:40.789Z,3.20
2022-09-23T13:01:33.326Z,3.00
2022-09-23T13:04:18.853Z,3.40
2022-09-23T13:07:08.143Z,4.10
2022-09-23T13:09:47.574Z,2.70
2022-09-23T13:12:23.241Z,2.70
2022-09-23T13:14:55.996Z,2.60
2022-09-23T13:17:30.774Z,2.40
2022-09-23T13:20:02.807Z,2.90
2022-09-23T13:22:53.831Z,2.70
2022-09-23T13:25:29.511Z,3.40
2022-09-23T13:28:01.603Z,3.80
2022-09-23T13:30:28.631Z,2.80
2022-09-23T13:33:44.944Z,2.60
2022-09-23T13:36:16.372Z,3.10
2022-09-23T13:38:43.302Z,3.00
2022-09-23T13:41:18.958Z,2.90
2022-09-23T13:43:51.666Z,3.40
2022-09-23T13:46:28.929Z,2.40
2022-09-23T13:48:56.701Z,2.60
2022-09-23T13:51:31.663Z,2.70
2022-09-23T13:54:01.655Z,1.80
2022-09-23T13:56:32.234Z,2.30
2022-09-23T13:59:25.799Z,2.90
2022-09-23T14:02:11.972Z,3.80
2022-09-23T14:04:39.450Z,3.20
2022-09-23T14:07:10.661Z,2.90
2022-09-23T14:09:42.867Z,3.50
2022-09-23T14:12:11.039Z,3.00
2022-09-23T14:14:40.933Z,3.50
2022-09-23T14:17:10.221Z,2.60
2022-09-23T14:19:37.403Z,3.50
2022-09-23T14:22:04.138Z,4.40
2022-09-23T14:24:37.418Z,3.50
2022-09-23T14:27:06.663Z,3.30
2022-09-23T14:29:46.636Z,2.90
2022-09-23T14:32:21.034Z,3.20
2022-09-23T14:35:14.632Z,3.00
2022-09-23T14:38:03.960Z,2.70
2022-09-23T14:40:34.587Z,2.90
2022-09-23T14:43:23.180Z,3.10
2022-09-23T14:45:58.325Z,2.90
2022-09-23T14:48:33.447Z,4.10
2022-09-23T14:51:09.967Z,3.10
2022-09-23T14:53:48.991Z,4.10
2022-09-23T14:56:21.101Z,3.90
2022-09-23T14:58:59.151Z,3.40
2022-09-23T15:01:32.231Z,4.30
2022-09-23T15:04:30.921Z,3.10
2022-09-23T15:07:04.587Z,4.30
2022-09-23T15:09:40.061Z,3.60
2022-09-23T15:12:14.779Z,4.10
2022-09-23T15:14:50.581Z,4.50
2022-09-23T15:17:32.695Z,3.20
2022-09-23T15:20:08.521Z,5.20
2022-09-23T15:22:56.258Z,4.30
2022-09-23T15:25:40.113Z,4.50
2022-09-23T15:28:06.628Z,3.40
2022-09-23T15:30:36.478Z,4.60
2022-09-23T15:33:03.322Z,4.40
2022-09-23T15:35:32.219Z,4.70
2022-09-23T15:38:01.748Z,4.50
2022-09-23T15:40:35.642Z,4.10
2022-09-23T15:43:21.674Z,5.50
2022-09-23T15:45:50.458Z,6.10
2022-09-23T15:48:22.755Z,4.90
2022-09-23T15:50:54.648Z,6.70
2022-09-23T15:53:28.007Z,5.90
2022-09-23T15:55:54.794Z,5.00
2022-09-23T15:58:23.615Z,6.10
2022-09-23T16:00:56.566Z,5.70
2022-09-23T16:03:29.095Z,6.10
2022-09-23T16:06:01.140Z,6.80
2022-09-23T16:08:29.455Z,8.60
2022-09-23T16:10:56.265Z,11.10
2022-09-23T16:13:23.108Z,8.70
2022-09-23T16:15:50.080Z,14.00
2022-09-23T16:18:17.021Z,10.60
2022-09-23T16:20:46.482Z,16.60
2022-09-23T16:23:35.751Z,14.00
2022-09-23T16:26:15.374Z,15.40
2022-09-23T16:28:44.191Z,13.50
2022-09-23T16:31:11.932Z,12.20
2022-09-23T16:33:39.078Z,12.80
2022-09-23T16:36:28.995Z,12.10
2022-09-23T16:38:56.170Z,11.20
2022-09-23T16:41:28.107Z,14.00
2022-09-23T16:43:56.390Z,14.60
2022-09-23T16:46:27.196Z,25.00
2022-09-23T16:48:53.912Z,15.30
2022-09-23T16:51:24.327Z,12.40
2022-09-23T16:53:51.716Z,14.80
2022-09-23T16:56:27.237Z,13.90
2022-09-23T16:58:55.828Z,15.10
2022-09-23T17:01:47.479Z,15.00
2022-09-23T17:04:16.637Z,14.50
2022-09-23T17:06:50.090Z,13.60
2022-09-23T17:09:24.697Z,16.40
2022-09-23T17:12:22.155Z,16.00
2022-09-23T17:14:48.927Z,19.50
2022-09-23T17:17:15.647Z,14.20
2022-09-23T17:19:42.206Z,14.70
2022-09-23T17:22:09.881Z,14.80
2022-09-23T17:24:36.420Z,20.30
2022-09-23T17:27:03.061Z,21.60
2022-09-23T17:29:29.967Z,16.80
2022-09-23T17:31:56.652Z,15.40
2022-09-23T17:34:24.171Z,19.80
2022-09-23T17:36:50.897Z,21.90
2022-09-23T17:39:17.730Z,28.30
2022-09-23T17:41:45.431Z,36.40
2022-09-23T17:44:12.356Z,62.50
2022-09-23T17:46:38.959Z,63.00
2022-09-23T17:49:06.866Z,49.10
2022-09-23T17:51:33.473Z,45.60
2022-09-23T17:54:00.053Z,38.30
2022-09-23T17:56:29.948Z,36.70
2022-09-23T17:59:01.917Z,39.30
2022-09-23T18:01:29.593Z,44.10
2022-09-23T18:03:59.487Z,46.80
2022-09-23T18:06:32.895Z,37.70
2022-09-23T18:09:03.906Z,35.10
2022-09-23T18:11:37.024Z,33.80
2022-09-23T18:14:08.003Z,35.00
2022-09-23T18:16:39.522Z,33.80
2022-09-23T18:19:10.613Z,57.10
2022-09-23T18:21:41.119Z,76.80
2022-09-23T18:24:31.157Z,74.90
2022-09-23T18:26:59.632Z,45.20
2022-09-23T18:29:26.654Z,46.30
2022-09-23T18:31:53.425Z,43.30
2022-09-23T18:34:20.492Z,45.10
2022-09-23T18:36:47.684Z,52.40
2022-09-23T18:39:14.503Z,52.30
2022-09-23T18:41:41.543Z,46.00
2022-09-23T18:44:09.661Z,42.10
2022-09-23T18:46:36.797Z,42.10
2022-09-23T18:49:23.147Z,40.60
2022-09-23T18:51:54.816Z,35.50
2022-09-23T18:54:24.259Z,38.10
2022-09-23T18:56:52.797Z,27.60
2022-09-23T18:59:23.936Z,28.10
2022-09-23T19:01:51.684Z,29.60
2022-09-23T19:04:24.032Z,39.70
2022-09-23T19:06:51.122Z,69.30
2022-09-23T19:09:19.061Z,206.90
2022-09-23T19:11:46.554Z,399.00
2022-09-23T19:14:13.745Z,420.60
2022-09-23T19:16:41.488Z,457.60
2022-09-23T19:19:09.464Z,375.90
2022-09-23T19:21:37.420Z,414.90
2022-09-23T19:24:07.570Z,277.00
2022-09-23T19:26:39.052Z,180.50
2022-09-23T19:29:08.794Z,158.40
2022-09-23T19:31:40.147Z,144.90
2022-09-23T19:34:13.452Z,128.20
2022-09-23T19:36:43.974Z,93.70
2022-09-23T19:39:25.103Z,99.40
2022-09-23T19:41:56.057Z,82.70
2022-09-23T19:44:25.382Z,61.50
2022-09-23T19:46:56.380Z,42.90
2022-09-23T19:49:25.026Z,62.80
2022-09-23T19:51:55.491Z,60.40
2022-09-23T19:54:22.800Z,97.90
2022-09-23T19:56:50.009Z,74.20
2022-09-23T19:59:19.064Z,82.50
2022-09-23T20:01:48.344Z,88.40
2022-09-23T20:04:16.604Z,104.40
2022-09-23T20:06:43.421Z,94.00
2022-09-23T20:09:10.234Z,92.50
2022-09-23T20:11:36.992Z,92.80
2022-09-23T20:14:06.011Z,94.20
2022-09-23T20:16:37.353Z,99.60
2022-09-23T20:19:05.730Z,88.00
2022-09-23T20:21:33.808Z,72.50
2022-09-23T20:24:01.749Z,65.00
2022-09-23T20:26:46.794Z,67.60
2022-09-23T20:29:13.457Z,66.60
2022-09-23T20:31:42.916Z,65.90
2022-09-23T20:34:11.140Z,56.90
2022-09-23T20:36:41.352Z,53.80
2022-09-23T20:39:10.389Z,64.80
2022-09-23T20:41:39.372Z,60.80
2022-09-23T20:44:12.412Z,53.40
2022-09-23T20:46:48.634Z,50.20
2022-09-23T20:49:23.811Z,52.60
2022-09-23T20:51:50.945Z,51.20
2022-09-23T20:54:21.932Z,51.10
2022-09-23T20:56:48.587Z,49.30
2022-09-23T20:59:17.786Z,48.90
2022-09-23T21:01:45.422Z,42.40
2022-09-23T21:04:12.111Z,40.10
2022-09-23T21:06:39.716Z,41.20
2022-09-23T21:09:07.181Z,39.50
2022-09-23T21:11:33.893Z,39.00
2022-09-23T21:14:01.660Z,35.00
2022-09-23T21:16:29.731Z,31.70
2022-09-23T21:18:57.637Z,32.70
2022-09-23T21:21:24.758Z,33.20
2022-09-23T21:23:52.049Z,35.80
2022-09-23T21:26:23.409Z,35.40
2022-09-23T21:28:59.320Z,33.00
2022-09-23T21:31:38.823Z,31.70
2022-09-23T21:34:07.925Z,32.90
2022-09-23T21:36:41.469Z,36.80
2022-09-23T21:39:10.488Z,31.60
2022-09-23T21:41:38.081Z,30.70
2022-09-23T21:44:06.634Z,35.00
2022-09-23T21:46:34.666Z,40.40
2022-09-23T21:49:03.949Z,32.30
2022-09-23T21:51:40.624Z,33.60
2022-09-23T21:54:14.245Z,31.90
2022-09-23T21:56:41.519Z,32.30
2022-09-23T21:59:08.490Z,34.90
2022-09-23T22:01:44.545Z,36.50
2022-09-23T22:04:18.198Z,35.60
2022-09-23T22:06:46.389Z,33.40
2022-09-23T22:09:18.054Z,34.80
2022-09-23T22:12:04.016Z,38.70
2022-09-23T22:14:31.345Z,36.80
2022-09-23T22:17:04.602Z,37.60
2022-09-23T22:19:35.346Z,34.40
2022-09-23T22:22:07.815Z,38.10
2022-09-23T22:24:34.489Z,37.70
2022-09-23T22:27:01.224Z,38.10
2022-09-23T22:29:46.780Z,37.20
2022-09-23T22:32:31.859Z,33.20
2022-09-23T22:34:58.429Z,36.50
2022-09-23T22:37:34.930Z,33.20
2022-09-23T22:40:08.550Z,34.40
2022-09-23T22:42:36.545Z,32.50
2022-09-23T22:45:05.870Z,33.40
2022-09-23T22:47:38.331Z,28.00
2022-09-23T22:50:09.475Z,28.00
2022-09-23T22:52:37.909Z,26.20
2022-09-23T22:55:08.151Z,27.50
2022-09-23T22:57:35.331Z,25.20
2022-09-23T23:00:06.401Z,26.50
2022-09-23T23:02:33.184Z,29.90
2022-09-23T23:05:00.516Z,38.20
2022-09-23T23:07:27.091Z,41.10
2022-09-23T23:09:53.908Z,51.90
2022-09-23T23:12:21.422Z,50.20
2022-09-23T23:14:49.590Z,45.10
2022-09-23T23:17:16.783Z,53.10
2022-09-23T23:19:43.711Z,48.90
2022-09-23T23:22:10.400Z,55.70
2022-09-23T23:24:37.142Z,61.20
2022-09-23T23:27:03.779Z,59.90
2022-09-23T23:29:30.478Z,55.90
2022-09-23T23:31:57.115Z,57.60
2022-09-23T23:34:23.718Z,55.40
2022-09-23T23:36:55.101Z,49.60
2022-09-23T23:39:24.217Z,56.10
2022-09-23T23:41:55.637Z,43.40
2022-09-23T23:44:24.705Z,37.10
2022-09-23T23:46:51.931Z,31.50
2022-09-23T23:49:18.612Z,38.80
2022-09-23T23:51:45.636Z,30.50
2022-09-23T23:54:12.537Z,30.50
2022-09-23T23:56:39.355Z,30.70
2022-09-23T23:59:05.955Z,33.10
